createdAt,value
2022-09-20T00:04:19.013Z,8.7
2022-09-20T00:09:56.387Z,8.6
2022-09-20T16:57:37.646Z,13.6
2022-09-20T17:03:04.310Z,13.1
2022-09-20T17:08:26.901Z,12.7
2022-09-20T17:14:04.173Z,12.3
2022-09-20T17:19:44.380Z,11.9
2022-09-20T17:25:05.906Z,11.5
2022-09-20T17:30:43.952Z,11.1
2022-09-20T17:36:12.194Z,10.8
2022-09-20T17:41:39.192Z,10.4
2022-09-20T17:47:01.743Z,10.2
2022-09-20T17:52:41.429Z,9.9
2022-09-20T17:57:47.187Z,9.8
2022-09-20T18:03:30.330Z,9.6
2022-09-20T18:08:53.342Z,9.4
2022-09-20T18:14:04.918Z,9.3
2022-09-20T18:19:26.803Z,9.2
2022-09-20T18:24:49.904Z,8.9
2022-09-20T18:30:30.966Z,8.8
2022-09-20T18:36:08.746Z,8.6
2022-09-20T18:41:47.780Z,8.3
2022-09-20T18:47:10.499Z,8.1
2022-09-20T18:52:01.576Z,7.8
2022-09-20T18:57:40.197Z,7.4
2022-09-20T19:03:30.568Z,7.1
2022-09-20T19:09:08.715Z,6.8
2022-09-20T19:14:38.121Z,6.4
2022-09-20T19:20:00.608Z,6.3
2022-09-20T19:25:38.825Z,6.1
2022-09-20T19:31:05.910Z,6
2022-09-20T19:36:27.710Z,6
2022-09-20T19:42:04.931Z,5.9
2022-09-20T19:47:43.715Z,5.9
2022-09-20T19:53:05.375Z,5.9
2022-09-20T19:58:29.589Z,5.8
2022-09-20T20:03:53.448Z,5.8
2022-09-20T20:09:18.610Z,5.6
2022-09-20T20:14:29.806Z,5.6
2022-09-20T20:19:37.474Z,5.5
2022-09-20T20:25:15.806Z,5.4
2022-09-20T20:30:37.444Z,5.4
2022-09-20T20:36:21.451Z,5.3
2022-09-20T20:42:02.056Z,5.3
2022-09-20T20:47:38.962Z,5.3
2022-09-20T20:53:18.968Z,5.4
2022-09-20T20:58:25.024Z,5.4
2022-09-20T21:03:52.384Z,5.5
